sensor_id;sensor_type;location;lat;lon;timestamp;P1;durP1;ratioP1;P2;durP2;ratioP2
40541;SDS011;49288;52.194;5.676;2022-12-19T00:02:01;82.93;;;30.50;;
40541;SDS011;49288;52.194;5.676;2022-12-19T00:07:04;82.82;;;28.55;;
40541;SDS011;49288;52.194;5.676;2022-12-19T00:12:10;100.05;;;35.90;;
40541;SDS011;49288;52.194;5.676;2022-12-19T00:17:20;90.40;;;31.67;;
40541;SDS011;49288;52.194;5.676;2022-12-19T00:22:22;94.95;;;33.53;;
40541;SDS011;49288;52.194;5.676;2022-12-19T00:27:25;91.10;;;30.75;;
40541;SDS011;49288;52.194;5.676;2022-12-19T00:32:28;99.05;;;31.38;;
40541;SDS011;49288;52.194;5.676;2022-12-19T00:37:31;118.43;;;37.65;;
40541;SDS011;49288;52.194;5.676;2022-12-19T00:42:34;101.32;;;35.22;;
40541;SDS011;49288;52.194;5.676;2022-12-19T00:47:36;89.47;;;31.15;;
40541;SDS011;49288;52.194;5.676;2022-12-19T00:52:40;102.00;;;34.00;;
40541;SDS011;49288;52.194;5.676;2022-12-19T00:57:42;107.15;;;33.10;;
40541;SDS011;49288;52.194;5.676;2022-12-19T01:02:45;102.40;;;34.83;;
40541;SDS011;49288;52.194;5.676;2022-12-19T01:07:48;121.00;;;37.53;;
40541;SDS011;49288;52.194;5.676;2022-12-19T01:12:50;143.93;;;40.70;;
40541;SDS011;49288;52.194;5.676;2022-12-19T01:17:55;108.32;;;34.00;;
40541;SDS011;49288;52.194;5.676;2022-12-19T01:22:59;134.55;;;37.58;;
40541;SDS011;49288;52.194;5.676;2022-12-19T01:28:02;111.75;;;35.45;;
40541;SDS011;49288;52.194;5.676;2022-12-19T01:33:08;62.33;;;22.45;;
40541;SDS011;49288;52.194;5.676;2022-12-19T01:38:16;104.32;;;32.10;;
40541;SDS011;49288;52.194;5.676;2022-12-19T01:43:21;109.53;;;33.92;;
40541;SDS011;49288;52.194;5.676;2022-12-19T01:48:32;54.83;;;18.85;;
40541;SDS011;49288;52.194;5.676;2022-12-19T01:53:41;70.57;;;24.27;;
40541;SDS011;49288;52.194;5.676;2022-12-19T01:58:51;62.00;;;23.58;;
40541;SDS011;49288;52.194;5.676;2022-12-19T02:04:10;60.33;;;20.75;;
40541;SDS011;49288;52.194;5.676;2022-12-19T02:09:13;81.95;;;28.80;;
40541;SDS011;49288;52.194;5.676;2022-12-19T02:14:17;79.82;;;27.67;;
40541;SDS011;49288;52.194;5.676;2022-12-19T02:40:57;73.30;;;24.63;;
40541;SDS011;49288;52.194;5.676;2022-12-19T02:46:12;69.13;;;24.95;;
40541;SDS011;49288;52.194;5.676;2022-12-19T02:51:17;61.63;;;22.15;;
40541;SDS011;49288;52.194;5.676;2022-12-19T03:06:52;75.90;;;26.85;;
40541;SDS011;49288;52.194;5.676;2022-12-19T03:12:13;75.35;;;26.63;;
40541;SDS011;49288;52.194;5.676;2022-12-19T03:17:19;41.88;;;15.73;;
40541;SDS011;49288;52.194;5.676;2022-12-19T03:22:22;121.90;;;37.60;;
40541;SDS011;49288;52.194;5.676;2022-12-19T03:27:26;105.25;;;31.98;;
40541;SDS011;49288;52.194;5.676;2022-12-19T03:32:30;122.03;;;35.88;;
40541;SDS011;49288;52.194;5.676;2022-12-19T03:37:36;100.90;;;31.92;;
40541;SDS011;49288;52.194;5.676;2022-12-19T03:42:41;72.80;;;27.20;;
40541;SDS011;49288;52.194;5.676;2022-12-19T03:48:06;110.28;;;34.22;;
40541;SDS011;49288;52.194;5.676;2022-12-19T03:53:28;128.05;;;36.40;;
40541;SDS011;49288;52.194;5.676;2022-12-19T03:58:44;134.00;;;36.72;;
40541;SDS011;49288;52.194;5.676;2022-12-19T04:03:50;160.90;;;37.90;;
40541;SDS011;49288;52.194;5.676;2022-12-19T04:08:53;176.10;;;39.50;;
40541;SDS011;49288;52.194;5.676;2022-12-19T04:14:01;189.60;;;40.08;;
40541;SDS011;49288;52.194;5.676;2022-12-19T04:19:09;215.23;;;42.17;;
40541;SDS011;49288;52.194;5.676;2022-12-19T04:24:26;141.40;;;34.17;;
40541;SDS011;49288;52.194;5.676;2022-12-19T04:29:34;44.03;;;16.27;;
40541;SDS011;49288;52.194;5.676;2022-12-19T04:34:38;97.00;;;24.63;;
40541;SDS011;49288;52.194;5.676;2022-12-19T04:39:44;85.43;;;22.85;;
40541;SDS011;49288;52.194;5.676;2022-12-19T04:44:48;47.40;;;16.30;;
40541;SDS011;49288;52.194;5.676;2022-12-19T04:49:51;73.95;;;21.30;;
40541;SDS011;49288;52.194;5.676;2022-12-19T04:54:54;26.25;;;9.88;;
40541;SDS011;49288;52.194;5.676;2022-12-19T05:00:16;45.72;;;17.98;;
40541;SDS011;49288;52.194;5.676;2022-12-19T05:05:19;65.05;;;23.27;;
40541;SDS011;49288;52.194;5.676;2022-12-19T05:10:29;34.15;;;14.50;;
40541;SDS011;49288;52.194;5.676;2022-12-19T05:15:31;32.60;;;13.75;;
40541;SDS011;49288;52.194;5.676;2022-12-19T05:20:35;35.13;;;13.10;;
40541;SDS011;49288;52.194;5.676;2022-12-19T05:25:38;48.92;;;18.70;;
40541;SDS011;49288;52.194;5.676;2022-12-19T05:30:41;32.35;;;13.73;;
40541;SDS011;49288;52.194;5.676;2022-12-19T05:35:50;42.72;;;16.77;;
40541;SDS011;49288;52.194;5.676;2022-12-19T05:40:52;37.17;;;15.10;;
40541;SDS011;49288;52.194;5.676;2022-12-19T05:45:55;40.35;;;15.70;;
40541;SDS011;49288;52.194;5.676;2022-12-19T05:50:58;47.05;;;20.48;;
40541;SDS011;49288;52.194;5.676;2022-12-19T05:56:01;35.03;;;15.55;;
40541;SDS011;49288;52.194;5.676;2022-12-19T06:01:11;31.52;;;13.27;;
40541;SDS011;49288;52.194;5.676;2022-12-19T06:06:22;28.52;;;12.40;;
40541;SDS011;49288;52.194;5.676;2022-12-19T06:11:28;61.88;;;21.00;;
40541;SDS011;49288;52.194;5.676;2022-12-19T06:16:30;31.40;;;13.45;;
40541;SDS011;49288;52.194;5.676;2022-12-19T06:21:34;49.35;;;16.95;;
40541;SDS011;49288;52.194;5.676;2022-12-19T06:26:46;46.05;;;18.17;;
40541;SDS011;49288;52.194;5.676;2022-12-19T06:31:49;34.97;;;16.50;;
40541;SDS011;49288;52.194;5.676;2022-12-19T06:36:55;50.70;;;20.08;;
40541;SDS011;49288;52.194;5.676;2022-12-19T06:41:57;44.10;;;17.25;;
40541;SDS011;49288;52.194;5.676;2022-12-19T06:47:19;41.03;;;15.90;;
40541;SDS011;49288;52.194;5.676;2022-12-19T06:52:24;33.38;;;13.95;;
40541;SDS011;49288;52.194;5.676;2022-12-19T06:57:27;30.75;;;15.23;;
40541;SDS011;49288;52.194;5.676;2022-12-19T07:02:30;20.65;;;9.52;;
40541;SDS011;49288;52.194;5.676;2022-12-19T07:07:35;32.30;;;16.23;;
40541;SDS011;49288;52.194;5.676;2022-12-19T07:12:43;19.17;;;8.63;;
40541;SDS011;49288;52.194;5.676;2022-12-19T07:17:45;26.75;;;11.55;;
40541;SDS011;49288;52.194;5.676;2022-12-19T07:22:48;23.50;;;10.65;;
40541;SDS011;49288;52.194;5.676;2022-12-19T07:27:52;39.63;;;15.73;;
40541;SDS011;49288;52.194;5.676;2022-12-19T07:32:57;41.55;;;16.52;;
40541;SDS011;49288;52.194;5.676;2022-12-19T07:38:02;49.97;;;17.92;;
40541;SDS011;49288;52.194;5.676;2022-12-19T07:43:06;17.85;;;8.65;;
40541;SDS011;49288;52.194;5.676;2022-12-19T07:48:09;47.83;;;17.85;;
40541;SDS011;49288;52.194;5.676;2022-12-19T07:53:12;36.22;;;15.38;;
40541;SDS011;49288;52.194;5.676;2022-12-19T07:58:15;16.48;;;8.60;;
40541;SDS011;49288;52.194;5.676;2022-12-19T08:03:18;46.05;;;19.17;;
40541;SDS011;49288;52.194;5.676;2022-12-19T08:08:21;38.20;;;16.48;;
40541;SDS011;49288;52.194;5.676;2022-12-19T08:13:24;31.58;;;13.32;;
40541;SDS011;49288;52.194;5.676;2022-12-19T08:18:26;42.42;;;17.00;;
40541;SDS011;49288;52.194;5.676;2022-12-19T08:23:29;20.50;;;9.50;;
40541;SDS011;49288;52.194;5.676;2022-12-19T08:28:33;21.10;;;10.07;;
40541;SDS011;49288;52.194;5.676;2022-12-19T08:33:37;29.83;;;12.05;;
40541;SDS011;49288;52.194;5.676;2022-12-19T08:38:39;27.92;;;14.02;;
40541;SDS011;49288;52.194;5.676;2022-12-19T08:43:42;29.90;;;13.93;;
40541;SDS011;49288;52.194;5.676;2022-12-19T08:48:50;32.58;;;15.77;;
40541;SDS011;49288;52.194;5.676;2022-12-19T08:53:53;30.95;;;13.95;;
40541;SDS011;49288;52.194;5.676;2022-12-19T08:58:56;36.50;;;14.48;;
40541;SDS011;49288;52.194;5.676;2022-12-19T09:03:59;34.40;;;14.30;;
40541;SDS011;49288;52.194;5.676;2022-12-19T09:09:21;41.42;;;16.60;;
40541;SDS011;49288;52.194;5.676;2022-12-19T09:14:24;31.15;;;13.85;;
40541;SDS011;49288;52.194;5.676;2022-12-19T09:19:27;24.38;;;12.48;;
40541;SDS011;49288;52.194;5.676;2022-12-19T09:24:30;20.67;;;7.93;;
40541;SDS011;49288;52.194;5.676;2022-12-19T09:29:35;30.17;;;12.13;;
40541;SDS011;49288;52.194;5.676;2022-12-19T09:34:37;36.38;;;11.38;;
40541;SDS011;49288;52.194;5.676;2022-12-19T09:39:40;28.75;;;9.88;;
40541;SDS011;49288;52.194;5.676;2022-12-19T09:45:08;22.02;;;9.65;;
40541;SDS011;49288;52.194;5.676;2022-12-19T09:50:48;30.40;;;11.82;;
40541;SDS011;49288;52.194;5.676;2022-12-19T09:56:13;36.38;;;16.65;;
40541;SDS011;49288;52.194;5.676;2022-12-19T10:01:28;23.92;;;10.18;;
40541;SDS011;49288;52.194;5.676;2022-12-19T10:06:34;27.50;;;14.05;;
40541;SDS011;49288;52.194;5.676;2022-12-19T10:28:58;30.15;;;11.93;;
40541;SDS011;49288;52.194;5.676;2022-12-19T10:34:29;29.67;;;14.52;;
40541;SDS011;49288;52.194;5.676;2022-12-19T10:45:07;32.95;;;14.73;;
40541;SDS011;49288;52.194;5.676;2022-12-19T10:50:19;32.53;;;14.85;;
40541;SDS011;49288;52.194;5.676;2022-12-19T11:01:04;34.67;;;15.45;;
40541;SDS011;49288;52.194;5.676;2022-12-19T11:11:36;33.42;;;15.43;;
40541;SDS011;49288;52.194;5.676;2022-12-19T11:16:59;22.65;;;9.18;;
40541;SDS011;49288;52.194;5.676;2022-12-19T11:22:29;31.10;;;13.45;;
40541;SDS011;49288;52.194;5.676;2022-12-19T11:27:54;24.13;;;13.00;;
40541;SDS011;49288;52.194;5.676;2022-12-19T11:33:44;24.98;;;10.95;;
40541;SDS011;49288;52.194;5.676;2022-12-19T11:38:48;26.08;;;13.52;;
40541;SDS011;49288;52.194;5.676;2022-12-19T11:43:55;31.33;;;14.02;;
40541;SDS011;49288;52.194;5.676;2022-12-19T11:49:08;30.73;;;12.50;;
40541;SDS011;49288;52.194;5.676;2022-12-19T11:54:23;25.80;;;12.27;;
40541;SDS011;49288;52.194;5.676;2022-12-19T11:59:48;13.27;;;6.53;;
40541;SDS011;49288;52.194;5.676;2022-12-19T12:10:18;23.42;;;10.90;;
40541;SDS011;49288;52.194;5.676;2022-12-19T12:21:38;18.95;;;9.23;;
40541;SDS011;49288;52.194;5.676;2022-12-19T12:27:36;24.40;;;12.23;;
40541;SDS011;49288;52.194;5.676;2022-12-19T12:33:20;21.88;;;10.35;;
40541;SDS011;49288;52.194;5.676;2022-12-19T12:39:04;22.88;;;11.77;;
40541;SDS011;49288;52.194;5.676;2022-12-19T12:44:33;20.63;;;10.90;;
40541;SDS011;49288;52.194;5.676;2022-12-19T12:49:47;23.08;;;10.80;;
40541;SDS011;49288;52.194;5.676;2022-12-19T12:54:56;20.58;;;9.18;;
40541;SDS011;49288;52.194;5.676;2022-12-19T13:10:31;21.02;;;10.13;;
40541;SDS011;49288;52.194;5.676;2022-12-19T13:15:35;19.15;;;10.50;;
40541;SDS011;49288;52.194;5.676;2022-12-19T13:26:02;23.25;;;10.35;;
40541;SDS011;49288;52.194;5.676;2022-12-19T13:42:15;23.17;;;10.80;;
40541;SDS011;49288;52.194;5.676;2022-12-19T13:47:40;20.02;;;10.55;;
40541;SDS011;49288;52.194;5.676;2022-12-19T13:52:49;19.38;;;9.77;;
40541;SDS011;49288;52.194;5.676;2022-12-19T13:57:53;10.40;;;5.67;;
40541;SDS011;49288;52.194;5.676;2022-12-19T14:02:56;16.77;;;8.80;;
40541;SDS011;49288;52.194;5.676;2022-12-19T14:08:01;21.27;;;10.23;;
40541;SDS011;49288;52.194;5.676;2022-12-19T14:13:05;20.35;;;10.15;;
40541;SDS011;49288;52.194;5.676;2022-12-19T14:18:47;18.38;;;9.23;;
40541;SDS011;49288;52.194;5.676;2022-12-19T14:23:51;13.98;;;8.40;;
40541;SDS011;49288;52.194;5.676;2022-12-19T14:29:34;22.13;;;10.70;;
40541;SDS011;49288;52.194;5.676;2022-12-19T14:35:02;18.20;;;10.05;;
40541;SDS011;49288;52.194;5.676;2022-12-19T14:40:30;18.58;;;9.75;;
40541;SDS011;49288;52.194;5.676;2022-12-19T14:46:08;19.80;;;9.40;;
40541;SDS011;49288;52.194;5.676;2022-12-19T14:51:42;12.07;;;6.22;;
40541;SDS011;49288;52.194;5.676;2022-12-19T14:57:14;17.70;;;8.77;;
40541;SDS011;49288;52.194;5.676;2022-12-19T15:02:40;12.95;;;6.80;;
40541;SDS011;49288;52.194;5.676;2022-12-19T15:07:46;16.30;;;9.23;;
40541;SDS011;49288;52.194;5.676;2022-12-19T15:18:42;13.77;;;6.60;;
40541;SDS011;49288;52.194;5.676;2022-12-19T15:23:45;18.27;;;9.23;;
40541;SDS011;49288;52.194;5.676;2022-12-19T15:28:51;19.80;;;8.82;;
40541;SDS011;49288;52.194;5.676;2022-12-19T15:33:54;18.55;;;6.63;;
40541;SDS011;49288;52.194;5.676;2022-12-19T15:39:18;19.23;;;9.75;;
40541;SDS011;49288;52.194;5.676;2022-12-19T15:49:34;18.00;;;9.82;;
40541;SDS011;49288;52.194;5.676;2022-12-19T15:54:37;14.55;;;7.40;;
40541;SDS011;49288;52.194;5.676;2022-12-19T15:59:50;21.25;;;9.88;;
40541;SDS011;49288;52.194;5.676;2022-12-19T16:04:53;19.35;;;9.38;;
40541;SDS011;49288;52.194;5.676;2022-12-19T16:10:05;17.15;;;8.90;;
40541;SDS011;49288;52.194;5.676;2022-12-19T16:15:12;17.30;;;9.10;;
40541;SDS011;49288;52.194;5.676;2022-12-19T16:20:17;24.85;;;9.20;;
40541;SDS011;49288;52.194;5.676;2022-12-19T16:25:22;15.90;;;6.75;;
40541;SDS011;49288;52.194;5.676;2022-12-19T16:30:31;15.20;;;8.43;;
40541;SDS011;49288;52.194;5.676;2022-12-19T16:35:34;24.30;;;8.68;;
40541;SDS011;49288;52.194;5.676;2022-12-19T16:40:57;14.07;;;7.95;;
40541;SDS011;49288;52.194;5.676;2022-12-19T16:45:59;13.43;;;7.03;;
40541;SDS011;49288;52.194;5.676;2022-12-19T16:51:03;19.93;;;9.17;;
40541;SDS011;49288;52.194;5.676;2022-12-19T16:56:08;21.40;;;9.77;;
40541;SDS011;49288;52.194;5.676;2022-12-19T17:01:19;18.63;;;8.05;;
40541;SDS011;49288;52.194;5.676;2022-12-19T17:11:27;9.98;;;5.03;;
40541;SDS011;49288;52.194;5.676;2022-12-19T17:16:31;17.13;;;9.10;;
40541;SDS011;49288;52.194;5.676;2022-12-19T17:21:34;15.57;;;8.40;;
40541;SDS011;49288;52.194;5.676;2022-12-19T17:26:37;16.00;;;8.25;;
40541;SDS011;49288;52.194;5.676;2022-12-19T17:31:42;13.38;;;7.18;;
40541;SDS011;49288;52.194;5.676;2022-12-19T17:36:45;17.10;;;7.47;;
40541;SDS011;49288;52.194;5.676;2022-12-19T17:41:48;19.65;;;8.98;;
40541;SDS011;49288;52.194;5.676;2022-12-19T17:46:51;11.33;;;5.90;;
40541;SDS011;49288;52.194;5.676;2022-12-19T17:51:56;17.03;;;8.27;;
40541;SDS011;49288;52.194;5.676;2022-12-19T17:57:00;16.98;;;9.30;;
40541;SDS011;49288;52.194;5.676;2022-12-19T18:02:10;17.75;;;8.55;;
40541;SDS011;49288;52.194;5.676;2022-12-19T18:07:20;20.17;;;8.60;;
40541;SDS011;49288;52.194;5.676;2022-12-19T18:12:23;17.05;;;9.23;;
40541;SDS011;49288;52.194;5.676;2022-12-19T18:17:26;14.77;;;8.48;;
40541;SDS011;49288;52.194;5.676;2022-12-19T18:22:29;13.75;;;8.25;;
40541;SDS011;49288;52.194;5.676;2022-12-19T18:27:32;24.85;;;7.97;;
40541;SDS011;49288;52.194;5.676;2022-12-19T18:32:36;18.23;;;7.70;;
40541;SDS011;49288;52.194;5.676;2022-12-19T18:37:40;15.23;;;8.32;;
40541;SDS011;49288;52.194;5.676;2022-12-19T18:42:42;15.23;;;7.97;;
40541;SDS011;49288;52.194;5.676;2022-12-19T18:47:46;19.38;;;7.97;;
40541;SDS011;49288;52.194;5.676;2022-12-19T18:52:52;16.20;;;9.55;;
40541;SDS011;49288;52.194;5.676;2022-12-19T18:57:55;15.75;;;7.57;;
40541;SDS011;49288;52.194;5.676;2022-12-19T19:03:02;21.50;;;8.07;;
40541;SDS011;49288;52.194;5.676;2022-12-19T19:13:23;12.27;;;7.13;;
40541;SDS011;49288;52.194;5.676;2022-12-19T19:18:31;18.25;;;7.00;;
40541;SDS011;49288;52.194;5.676;2022-12-19T19:23:41;12.50;;;7.60;;
40541;SDS011;49288;52.194;5.676;2022-12-19T19:28:48;15.27;;;8.73;;
40541;SDS011;49288;52.194;5.676;2022-12-19T19:33:55;13.90;;;8.20;;
40541;SDS011;49288;52.194;5.676;2022-12-19T19:39:06;14.13;;;6.03;;
40541;SDS011;49288;52.194;5.676;2022-12-19T19:44:09;14.13;;;8.57;;
40541;SDS011;49288;52.194;5.676;2022-12-19T19:49:13;17.63;;;8.45;;
40541;SDS011;49288;52.194;5.676;2022-12-19T19:54:16;18.00;;;7.95;;
40541;SDS011;49288;52.194;5.676;2022-12-19T19:59:19;13.55;;;5.78;;
40541;SDS011;49288;52.194;5.676;2022-12-19T20:04:22;18.95;;;9.23;;
40541;SDS011;49288;52.194;5.676;2022-12-19T20:09:25;13.63;;;7.45;;
40541;SDS011;49288;52.194;5.676;2022-12-19T20:14:28;12.55;;;6.78;;
40541;SDS011;49288;52.194;5.676;2022-12-19T20:19:31;11.73;;;6.07;;
40541;SDS011;49288;52.194;5.676;2022-12-19T20:24:34;11.48;;;7.25;;
40541;SDS011;49288;52.194;5.676;2022-12-19T20:29:43;16.13;;;7.55;;
40541;SDS011;49288;52.194;5.676;2022-12-19T20:34:46;11.18;;;5.13;;
40541;SDS011;49288;52.194;5.676;2022-12-19T20:39:49;17.75;;;7.85;;
40541;SDS011;49288;52.194;5.676;2022-12-19T20:44:51;15.02;;;6.38;;
40541;SDS011;49288;52.194;5.676;2022-12-19T20:49:54;20.65;;;8.27;;
40541;SDS011;49288;52.194;5.676;2022-12-19T20:54:57;13.43;;;7.03;;
40541;SDS011;49288;52.194;5.676;2022-12-19T21:00:01;16.63;;;8.00;;
40541;SDS011;49288;52.194;5.676;2022-12-19T21:05:05;13.35;;;7.10;;
40541;SDS011;49288;52.194;5.676;2022-12-19T21:10:08;14.65;;;7.90;;
40541;SDS011;49288;52.194;5.676;2022-12-19T21:15:11;15.20;;;7.78;;
40541;SDS011;49288;52.194;5.676;2022-12-19T21:20:14;15.82;;;7.60;;
40541;SDS011;49288;52.194;5.676;2022-12-19T21:25:16;18.98;;;8.10;;
40541;SDS011;49288;52.194;5.676;2022-12-19T21:30:19;18.02;;;8.43;;
40541;SDS011;49288;52.194;5.676;2022-12-19T21:35:22;16.27;;;8.32;;
40541;SDS011;49288;52.194;5.676;2022-12-19T21:40:25;15.10;;;7.45;;
40541;SDS011;49288;52.194;5.676;2022-12-19T21:45:27;16.65;;;7.28;;
40541;SDS011;49288;52.194;5.676;2022-12-19T21:50:30;13.48;;;5.82;;
40541;SDS011;49288;52.194;5.676;2022-12-19T21:55:34;14.55;;;7.15;;
40541;SDS011;49288;52.194;5.676;2022-12-19T22:00:38;14.18;;;7.68;;
40541;SDS011;49288;52.194;5.676;2022-12-19T22:05:40;10.73;;;5.15;;
40541;SDS011;49288;52.194;5.676;2022-12-19T22:10:43;12.23;;;5.20;;
40541;SDS011;49288;52.194;5.676;2022-12-19T22:15:48;18.17;;;7.60;;
40541;SDS011;49288;52.194;5.676;2022-12-19T22:20:55;12.73;;;5.60;;
40541;SDS011;49288;52.194;5.676;2022-12-19T22:26:00;14.13;;;6.60;;
40541;SDS011;49288;52.194;5.676;2022-12-19T22:31:14;14.18;;;7.18;;
40541;SDS011;49288;52.194;5.676;2022-12-19T22:36:26;13.60;;;6.97;;
40541;SDS011;49288;52.194;5.676;2022-12-19T22:41:32;19.00;;;7.65;;
40541;SDS011;49288;52.194;5.676;2022-12-19T22:46:36;16.90;;;7.72;;
40541;SDS011;49288;52.194;5.676;2022-12-19T22:51:39;14.82;;;7.82;;
40541;SDS011;49288;52.194;5.676;2022-12-19T22:56:42;22.85;;;7.20;;
40541;SDS011;49288;52.194;5.676;2022-12-19T23:01:45;18.05;;;6.60;;
40541;SDS011;49288;52.194;5.676;2022-12-19T23:06:50;11.68;;;6.70;;
40541;SDS011;49288;52.194;5.676;2022-12-19T23:11:53;12.13;;;6.85;;
40541;SDS011;49288;52.194;5.676;2022-12-19T23:16:58;13.95;;;6.75;;
40541;SDS011;49288;52.194;5.676;2022-12-19T23:22:01;15.65;;;7.40;;
40541;SDS011;49288;52.194;5.676;2022-12-19T23:27:04;14.20;;;7.05;;
40541;SDS011;49288;52.194;5.676;2022-12-19T23:32:08;13.13;;;7.13;;
40541;SDS011;49288;52.194;5.676;2022-12-19T23:37:10;17.08;;;6.65;;
40541;SDS011;49288;52.194;5.676;2022-12-19T23:42:14;15.23;;;6.75;;
40541;SDS011;49288;52.194;5.676;2022-12-19T23:47:17;11.02;;;6.95;;
40541;SDS011;49288;52.194;5.676;2022-12-19T23:52:21;10.40;;;6.72;;
40541;SDS011;49288;52.194;5.676;2022-12-19T23:57:24;12.18;;;6.30;;
